Time;durP1;ratioP1;P1;durP2;ratioP2;P2;SDS_P1;SDS_P2;PMS_P1;PMS_P2;Temp;Humidity;BMP_temperature;BMP_pressure;BME280_temperature;BME280_humidity;BME280_pressure;Samples;Min_cycle;Max_cycle;Signal;HPM_P1;HPM_P2
2021/10/23 00:00:29;;;;;;;10.05;2.60;;;;;;;;;;5012106;28;20033;-68
2021/10/23 00:02:55;;;;;;;14.95;2.35;;;;;;;;;;5011764;28;20034;-68
2021/10/23 00:05:21;;;;;;;13.90;2.88;;;;;;;;;;5013241;28;20113;-68
2021/10/23 00:07:47;;;;;;;10.90;2.38;;;;;;;;;;5017703;28;20052;-68
2021/10/23 00:10:13;;;;;;;11.10;2.42;;;;;;;;;;5013242;28;20029;-68
2021/10/23 00:12:39;;;;;;;15.10;3.67;;;;;;;;;;5014345;28;20391;-68
2021/10/23 00:15:06;;;;;;;10.15;2.20;;;;;;;;;;5013017;28;20029;-68
2021/10/23 00:17:32;;;;;;;14.30;2.88;;;;;;;;;;5013202;28;20029;-68
2021/10/23 00:20:00;;;;;;;13.07;2.33;;;;;;;;;;5010903;28;20022;-68
2021/10/23 00:22:27;;;;;;;12.43;3.15;;;;;;;;;;5012662;28;20022;-68
2021/10/23 00:24:53;;;;;;;9.48;2.38;;;;;;;;;;5010638;28;20501;-68
2021/10/23 00:27:19;;;;;;;8.50;2.75;;;;;;;;;;5012451;28;20045;-68
2021/10/23 00:29:45;;;;;;;9.80;2.55;;;;;;;;;;5011407;28;20034;-68
2021/10/23 00:32:11;;;;;;;14.95;4.88;;;;;;;;;;5012864;28;20041;-68
2021/10/23 00:34:38;;;;;;;8.60;2.70;;;;;;;;;;5013697;28;20052;-68
2021/10/23 00:37:04;;;;;;;11.73;2.60;;;;;;;;;;5012336;28;20068;-68
2021/10/23 00:39:30;;;;;;;9.23;2.95;;;;;;;;;;5009816;28;20030;-68
2021/10/23 00:41:56;;;;;;;8.23;2.95;;;;;;;;;;5011974;28;20025;-68
2021/10/23 00:44:29;;;;;;;6.32;2.55;;;;;;;;;;5011389;28;20029;-70
2021/10/23 00:46:55;;;;;;;10.40;2.42;;;;;;;;;;5011714;28;20486;-68
2021/10/23 00:49:21;;;;;;;10.65;3.05;;;;;;;;;;5010295;28;20486;-68
2021/10/23 00:51:47;;;;;;;9.95;2.58;;;;;;;;;;5011967;28;20830;-68
2021/10/23 00:54:13;;;;;;;5.30;2.20;;;;;;;;;;5011547;28;20018;-68
2021/10/23 00:56:39;;;;;;;35.63;3.83;;;;;;;;;;5012127;28;20088;-68
2021/10/23 00:59:05;;;;;;;16.13;2.78;;;;;;;;;;5010658;28;20026;-68
2021/10/23 01:01:32;;;;;;;12.13;2.78;;;;;;;;;;5011817;28;20022;-68
2021/10/23 01:03:58;;;;;;;18.13;2.70;;;;;;;;;;5011689;28;20045;-68
2021/10/23 01:06:24;;;;;;;8.68;3.35;;;;;;;;;;5015077;28;20030;-68
2021/10/23 01:08:50;;;;;;;13.15;2.55;;;;;;;;;;5011802;28;20021;-69
2021/10/23 01:11:16;;;;;;;14.15;2.90;;;;;;;;;;5011814;28;20022;-69
2021/10/23 01:13:42;;;;;;;8.82;3.38;;;;;;;;;;5009453;28;20092;-69
2021/10/23 01:16:09;;;;;;;12.57;2.80;;;;;;;;;;5012211;28;20017;-69
2021/10/23 01:18:35;;;;;;;20.20;3.67;;;;;;;;;;5010234;28;20045;-68
2021/10/23 01:21:01;;;;;;;16.67;3.47;;;;;;;;;;5009746;28;20041;-69
2021/10/23 01:23:27;;;;;;;11.90;3.10;;;;;;;;;;5016436;28;20114;-69
2021/10/23 01:25:53;;;;;;;13.57;3.00;;;;;;;;;;5012322;28;20103;-69
2021/10/23 01:28:19;;;;;;;14.95;3.17;;;;;;;;;;5008560;28;20025;-69
2021/10/23 01:30:45;;;;;;;11.27;3.45;;;;;;;;;;5013488;28;20045;-69
2021/10/23 01:33:11;;;;;;;10.45;3.20;;;;;;;;;;5009545;28;20050;-69
2021/10/23 01:35:39;;;;;;;10.15;3.05;;;;;;;;;;5011499;28;20029;-69
2021/10/23 01:38:05;;;;;;;10.25;3.03;;;;;;;;;;5008479;28;20125;-69
2021/10/23 01:40:33;;;;;;;13.43;3.13;;;;;;;;;;5011712;28;20091;-69
2021/10/23 01:42:59;;;;;;;10.57;3.08;;;;;;;;;;5010461;28;20054;-69
2021/10/23 01:45:25;;;;;;;11.18;3.30;;;;;;;;;;5011083;28;20037;-69
2021/10/23 01:47:51;;;;;;;12.70;3.22;;;;;;;;;;5009447;28;20018;-69
2021/10/23 01:50:21;;;;;;;14.57;3.17;;;;;;;;;;5010755;28;20025;-69
2021/10/23 01:52:48;;;;;;;13.35;3.92;;;;;;;;;;5010957;28;20024;-69
2021/10/23 01:55:15;;;;;;;10.45;2.80;;;;;;;;;;5011037;28;20041;-69
2021/10/23 01:57:41;;;;;;;8.68;2.67;;;;;;;;;;5009192;28;20032;-69
2021/10/23 02:00:08;;;;;;;11.75;3.17;;;;;;;;;;5010478;28;20030;-69
2021/10/23 02:02:34;;;;;;;10.23;3.17;;;;;;;;;;5010743;28;20034;-69
2021/10/23 02:05:01;;;;;;;9.15;2.78;;;;;;;;;;5010413;28;20030;-69
2021/10/23 02:07:27;;;;;;;7.43;2.95;;;;;;;;;;5014814;28;20033;-69
2021/10/23 02:09:53;;;;;;;18.23;3.75;;;;;;;;;;5009697;28;20021;-69
2021/10/23 02:12:19;;;;;;;14.60;3.13;;;;;;;;;;5009101;28;20116;-69
2021/10/23 02:14:46;;;;;;;8.13;2.88;;;;;;;;;;5014485;28;20553;-68
2021/10/23 02:17:12;;;;;;;10.05;2.90;;;;;;;;;;5011464;28;20096;-69
2021/10/23 02:19:38;;;;;;;10.48;3.00;;;;;;;;;;5009882;28;20106;-69
2021/10/23 02:22:04;;;;;;;10.30;3.08;;;;;;;;;;5010291;28;20048;-69
2021/10/23 02:24:31;;;;;;;11.60;2.90;;;;;;;;;;5009159;28;20112;-68
2021/10/23 02:26:57;;;;;;;9.40;2.72;;;;;;;;;;5010811;28;20040;-68
2021/10/23 02:29:23;;;;;;;7.88;2.65;;;;;;;;;;5010026;28;20169;-69
2021/10/23 02:31:50;;;;;;;6.15;2.88;;;;;;;;;;5010370;28;20499;-69
2021/10/23 02:34:16;;;;;;;7.57;2.60;;;;;;;;;;5015276;28;20065;-69
2021/10/23 02:36:42;;;;;;;6.78;2.95;;;;;;;;;;5010717;28;20077;-69
2021/10/23 02:39:08;;;;;;;5.97;2.83;;;;;;;;;;5008211;28;20026;-69
2021/10/23 02:41:34;;;;;;;10.50;3.13;;;;;;;;;;5009325;28;20057;-69
2021/10/23 02:44:00;;;;;;;10.23;2.72;;;;;;;;;;5010572;28;20121;-69
2021/10/23 02:46:26;;;;;;;7.97;2.72;;;;;;;;;;5012446;28;20118;-68
2021/10/23 02:48:52;;;;;;;10.65;2.72;;;;;;;;;;5009223;28;20049;-69
2021/10/23 02:51:18;;;;;;;7.60;2.80;;;;;;;;;;5009107;28;20037;-68
2021/10/23 02:53:45;;;;;;;8.57;2.50;;;;;;;;;;5009469;28;20045;-69
2021/10/23 02:56:11;;;;;;;5.68;2.38;;;;;;;;;;5010425;28;20068;-68
2021/10/23 02:58:37;;;;;;;7.25;2.53;;;;;;;;;;5007920;28;20113;-69
2021/10/23 03:01:03;;;;;;;5.30;1.98;;;;;;;;;;5010643;28;20026;-69
2021/10/23 03:03:29;;;;;;;9.02;2.72;;;;;;;;;;5011791;28;20022;-68
2021/10/23 03:05:55;;;;;;;8.02;2.30;;;;;;;;;;5014052;28;20547;-68
2021/10/23 03:08:21;;;;;;;5.57;2.55;;;;;;;;;;5015831;28;20032;-68
2021/10/23 03:10:47;;;;;;;7.30;2.15;;;;;;;;;;5014189;28;20041;-68
2021/10/23 03:13:13;;;;;;;10.20;2.38;;;;;;;;;;5013167;28;20478;-68
2021/10/23 03:15:39;;;;;;;6.05;2.38;;;;;;;;;;5012509;28;20442;-68
2021/10/23 03:18:05;;;;;;;13.25;2.75;;;;;;;;;;5012400;28;20592;-68
2021/10/23 03:20:31;;;;;;;7.40;2.00;;;;;;;;;;5006902;28;20466;-69
2021/10/23 03:22:57;;;;;;;10.55;2.97;;;;;;;;;;4996714;28;20029;-68
2021/10/23 03:25:23;;;;;;;6.07;2.38;;;;;;;;;;5012216;28;20383;-68
2021/10/23 03:27:49;;;;;;;6.53;2.17;;;;;;;;;;5012525;28;20398;-68
2021/10/23 03:30:15;;;;;;;4.72;2.42;;;;;;;;;;5013144;28;20030;-68
2021/10/23 03:32:41;;;;;;;6.78;2.47;;;;;;;;;;5013549;28;20494;-68
2021/10/23 03:35:08;;;;;;;4.82;2.50;;;;;;;;;;5014556;28;20486;-68
2021/10/23 03:37:35;;;;;;;7.15;2.55;;;;;;;;;;5013389;28;20510;-68
2021/10/23 03:40:02;;;;;;;7.43;2.53;;;;;;;;;;5011982;28;20037;-68
2021/10/23 03:42:28;;;;;;;8.38;2.20;;;;;;;;;;5008370;28;20080;-68
2021/10/23 03:44:54;;;;;;;6.63;2.50;;;;;;;;;;5013920;28;20080;-68
2021/10/23 03:47:20;;;;;;;8.77;2.70;;;;;;;;;;5012322;28;20030;-68
2021/10/23 03:49:47;;;;;;;6.22;2.70;;;;;;;;;;5012129;28;20018;-68
2021/10/23 03:52:13;;;;;;;6.97;2.55;;;;;;;;;;5012754;28;20033;-68
2021/10/23 03:54:40;;;;;;;11.15;2.70;;;;;;;;;;5013213;28;20018;-68
2021/10/23 03:57:06;;;;;;;8.75;2.95;;;;;;;;;;5005377;28;20018;-68
2021/10/23 03:59:33;;;;;;;6.07;2.30;;;;;;;;;;5010788;28;20107;-68
2021/10/23 04:01:59;;;;;;;7.18;2.70;;;;;;;;;;5011430;28;20457;-68
2021/10/23 04:04:25;;;;;;;10.25;3.25;;;;;;;;;;5011630;28;20026;-68
2021/10/23 04:06:51;;;;;;;10.88;3.10;;;;;;;;;;5011845;28;20548;-68
2021/10/23 04:09:17;;;;;;;6.32;2.83;;;;;;;;;;5011326;28;20029;-68
2021/10/23 04:11:43;;;;;;;6.15;2.85;;;;;;;;;;5011794;28;20030;-68
2021/10/23 04:14:09;;;;;;;9.27;3.42;;;;;;;;;;5012108;28;20109;-68
2021/10/23 04:16:36;;;;;;;10.55;3.50;;;;;;;;;;5012310;28;20018;-68
2021/10/23 04:19:02;;;;;;;8.07;3.30;;;;;;;;;;5011540;28;20026;-68
2021/10/23 04:21:28;;;;;;;9.55;3.55;;;;;;;;;;5012647;28;20047;-68
2021/10/23 04:23:54;;;;;;;8.55;3.70;;;;;;;;;;5013106;28;20025;-68
2021/10/23 04:26:20;;;;;;;10.07;4.20;;;;;;;;;;5011222;28;20498;-68
2021/10/23 04:28:46;;;;;;;9.38;3.63;;;;;;;;;;5011250;28;20454;-68
2021/10/23 04:31:13;;;;;;;9.95;3.75;;;;;;;;;;5012783;28;20026;-68
2021/10/23 04:33:39;;;;;;;9.70;4.25;;;;;;;;;;5012054;28;20068;-68
2021/10/23 04:36:05;;;;;;;13.27;4.22;;;;;;;;;;5010903;28;20107;-68
2021/10/23 04:38:31;;;;;;;9.13;4.25;;;;;;;;;;5010566;28;20030;-68
2021/10/23 04:40:57;;;;;;;11.35;4.32;;;;;;;;;;5010402;28;20026;-68
2021/10/23 04:43:23;;;;;;;10.32;4.68;;;;;;;;;;5011675;28;20029;-68
2021/10/23 04:45:49;;;;;;;12.77;5.50;;;;;;;;;;5012016;28;20033;-69
2021/10/23 04:48:15;;;;;;;11.18;6.18;;;;;;;;;;5009361;28;20755;-68
2021/10/23 04:50:41;;;;;;;9.93;5.22;;;;;;;;;;5012166;28;20482;-68
2021/10/23 04:53:07;;;;;;;10.90;5.03;;;;;;;;;;5015591;28;20083;-68
2021/10/23 04:55:33;;;;;;;12.68;5.90;;;;;;;;;;5008469;28;20014;-68
2021/10/23 04:57:59;;;;;;;12.77;6.20;;;;;;;;;;5010375;28;20021;-68
2021/10/23 05:00:26;;;;;;;16.15;6.50;;;;;;;;;;5011892;28;20076;-68
2021/10/23 05:02:52;;;;;;;12.13;6.13;;;;;;;;;;5011386;28;20129;-68
2021/10/23 05:05:18;;;;;;;12.32;6.50;;;;;;;;;;5011892;28;20026;-68
2021/10/23 05:07:44;;;;;;;12.02;6.45;;;;;;;;;;5013555;28;20434;-68
2021/10/23 05:10:10;;;;;;;13.43;5.80;;;;;;;;;;5010312;28;20030;-68
2021/10/23 05:12:36;;;;;;;16.83;5.82;;;;;;;;;;5010319;28;20033;-68
2021/10/23 05:15:02;;;;;;;15.35;6.38;;;;;;;;;;5010387;28;20018;-68
2021/10/23 05:17:28;;;;;;;13.80;6.53;;;;;;;;;;5011318;28;20029;-68
2021/10/23 05:19:54;;;;;;;11.68;6.38;;;;;;;;;;5010637;28;20051;-68
2021/10/23 05:22:20;;;;;;;12.20;6.10;;;;;;;;;;5010353;28;20054;-68
2021/10/23 05:24:47;;;;;;;16.60;7.30;;;;;;;;;;5011406;28;20033;-68
2021/10/23 05:27:13;;;;;;;13.65;6.45;;;;;;;;;;5011297;28;20037;-68
2021/10/23 05:29:39;;;;;;;14.32;7.25;;;;;;;;;;5010654;28;20494;-68
2021/10/23 05:32:06;;;;;;;14.52;8.00;;;;;;;;;;5009310;28;20034;-68
2021/10/23 05:34:32;;;;;;;13.20;7.90;;;;;;;;;;5011188;28;20072;-68
2021/10/23 05:36:58;;;;;;;14.93;6.93;;;;;;;;;;5010934;28;20030;-68
2021/10/23 05:39:24;;;;;;;17.77;8.45;;;;;;;;;;5008644;28;20072;-68
2021/10/23 05:41:50;;;;;;;16.67;9.30;;;;;;;;;;5009320;28;20014;-68
2021/10/23 05:44:16;;;;;;;17.75;9.15;;;;;;;;;;5003814;28;20033;-68
2021/10/23 05:46:42;;;;;;;14.40;8.82;;;;;;;;;;5004679;28;20115;-68
2021/10/23 05:49:08;;;;;;;18.90;10.00;;;;;;;;;;5004796;28;20051;-68
2021/10/23 05:51:34;;;;;;;20.10;9.93;;;;;;;;;;5010902;28;20030;-68
2021/10/23 05:54:00;;;;;;;18.10;9.55;;;;;;;;;;5009303;28;20030;-68
2021/10/23 05:56:27;;;;;;;21.02;10.70;;;;;;;;;;5011043;28;20034;-68
2021/10/23 05:58:59;;;;;;;18.42;10.75;;;;;;;;;;5009778;28;20542;-68
2021/10/23 06:01:25;;;;;;;22.15;11.00;;;;;;;;;;5009832;28;20405;-68
2021/10/23 06:03:51;;;;;;;22.25;11.55;;;;;;;;;;5009078;28;20101;-68
2021/10/23 06:06:18;;;;;;;27.65;13.13;;;;;;;;;;5011974;28;20030;-68
2021/10/23 06:08:44;;;;;;;23.65;11.65;;;;;;;;;;5011768;28;20029;-68
2021/10/23 06:11:11;;;;;;;25.38;12.50;;;;;;;;;;5098462;22;20131;-71
2021/10/23 06:13:37;;;;;;;25.38;14.15;;;;;;;;;;5006427;28;20044;-71
2021/10/23 06:16:04;;;;;;;27.77;14.02;;;;;;;;;;5033116;28;20026;-71
2021/10/23 06:18:30;;;;;;;21.77;12.90;;;;;;;;;;5014518;28;20033;-71
2021/10/23 06:20:56;;;;;;;23.02;13.52;;;;;;;;;;5015931;28;20068;-71
2021/10/23 06:23:22;;;;;;;28.65;13.68;;;;;;;;;;5005155;28;20038;-71
2021/10/23 06:25:48;;;;;;;26.67;13.68;;;;;;;;;;5018417;28;20088;-71
2021/10/23 06:28:14;;;;;;;29.80;14.63;;;;;;;;;;5002442;28;20311;-71
2021/10/23 06:30:40;;;;;;;24.88;14.23;;;;;;;;;;5010665;28;20049;-71
2021/10/23 06:33:06;;;;;;;29.45;14.40;;;;;;;;;;5012833;28;20076;-71
2021/10/23 06:35:32;;;;;;;26.25;14.85;;;;;;;;;;5005801;28;20522;-71
2021/10/23 06:37:58;;;;;;;25.85;14.65;;;;;;;;;;5009498;28;20041;-71
2021/10/23 06:40:24;;;;;;;29.98;16.17;;;;;;;;;;5022257;28;20544;-71
2021/10/23 06:42:51;;;;;;;30.55;16.23;;;;;;;;;;5016075;28;20091;-71
2021/10/23 06:45:17;;;;;;;30.45;16.08;;;;;;;;;;5020671;28;20551;-71
2021/10/23 06:47:43;;;;;;;28.00;15.52;;;;;;;;;;5016832;28;20447;-71
2021/10/23 06:50:10;;;;;;;26.75;14.80;;;;;;;;;;5010845;28;20026;-71
2021/10/23 06:52:36;;;;;;;33.20;15.60;;;;;;;;;;5013194;28;20038;-71
2021/10/23 06:55:03;;;;;;;27.45;14.73;;;;;;;;;;5012032;28;20025;-71
2021/10/23 06:57:29;;;;;;;30.80;15.48;;;;;;;;;;5007942;28;20033;-71
2021/10/23 06:59:55;;;;;;;28.25;15.35;;;;;;;;;;5010774;28;20028;-71
2021/10/23 07:02:21;;;;;;;28.08;14.98;;;;;;;;;;5012303;28;20030;-71
2021/10/23 07:04:47;;;;;;;30.15;14.65;;;;;;;;;;5012630;28;20065;-71
2021/10/23 07:07:13;;;;;;;29.95;14.73;;;;;;;;;;5012003;28;20026;-71
2021/10/23 07:09:39;;;;;;;24.35;14.15;;;;;;;;;;5010977;28;20060;-71
2021/10/23 07:12:05;;;;;;;31.42;14.52;;;;;;;;;;5025715;28;20053;-71
2021/10/23 07:14:31;;;;;;;30.77;15.40;;;;;;;;;;5015061;28;20044;-72
2021/10/23 07:16:57;;;;;;;29.95;15.95;;;;;;;;;;5006841;28;20481;-71
2021/10/23 07:19:23;;;;;;;32.33;16.20;;;;;;;;;;5010163;28;20053;-71
2021/10/23 07:21:49;;;;;;;28.92;14.55;;;;;;;;;;5013883;28;20022;-71
2021/10/23 07:24:19;;;;;;;27.65;14.10;;;;;;;;;;5007710;28;20026;-71
2021/10/23 07:26:45;;;;;;;26.75;14.60;;;;;;;;;;5010896;28;20032;-71
2021/10/23 07:29:13;;;;;;;26.33;14.27;;;;;;;;;;5009809;28;20037;-71
2021/10/23 07:31:39;;;;;;;31.15;14.05;;;;;;;;;;5013256;28;20030;-71
2021/10/23 07:34:05;;;;;;;26.77;14.65;;;;;;;;;;5014038;28;20030;-71
2021/10/23 07:36:31;;;;;;;27.58;13.18;;;;;;;;;;5012487;28;20020;-71
2021/10/23 07:38:58;;;;;;;27.92;14.05;;;;;;;;;;5004631;28;20034;-71
2021/10/23 07:41:24;;;;;;;25.10;14.07;;;;;;;;;;5008403;28;20032;-71
2021/10/23 07:43:50;;;;;;;27.73;14.05;;;;;;;;;;5010060;28;20038;-71
2021/10/23 07:46:16;;;;;;;23.88;13.43;;;;;;;;;;5009660;28;20026;-71
2021/10/23 07:48:42;;;;;;;30.13;14.50;;;;;;;;;;5009267;28;20458;-71
2021/10/23 07:51:08;;;;;;;29.70;14.45;;;;;;;;;;5014864;28;20124;-71
2021/10/23 07:53:35;;;;;;;21.92;13.02;;;;;;;;;;5007180;28;20124;-71
2021/10/23 07:56:01;;;;;;;23.08;14.20;;;;;;;;;;5022630;28;20448;-71
2021/10/23 07:58:28;;;;;;;27.90;14.73;;;;;;;;;;5004097;28;20084;-71
2021/10/23 08:00:54;;;;;;;28.38;15.55;;;;;;;;;;5025962;28;21584;-71
2021/10/23 08:03:23;;;;;;;25.30;15.25;;;;;;;;;;5012589;28;20033;-71
2021/10/23 08:05:49;;;;;;;26.13;15.20;;;;;;;;;;5005661;28;20108;-71
2021/10/23 08:08:15;;;;;;;30.75;17.90;;;;;;;;;;5006513;28;20467;-71
2021/10/23 08:10:41;;;;;;;26.20;16.08;;;;;;;;;;4996062;28;20050;-71
2021/10/23 08:13:07;;;;;;;23.55;15.77;;;;;;;;;;5008729;28;20033;-71
2021/10/23 08:15:34;;;;;;;29.25;16.58;;;;;;;;;;5019801;28;20026;-70
2021/10/23 08:18:03;;;;;;;29.58;17.38;;;;;;;;;;5009969;28;20774;-70
2021/10/23 08:20:34;;;;;;;33.10;18.38;;;;;;;;;;5006022;28;20055;-70
2021/10/23 08:23:00;;;;;;;30.42;19.33;;;;;;;;;;5010484;28;20092;-71
2021/10/23 08:25:26;;;;;;;30.08;19.38;;;;;;;;;;5014014;28;20117;-72
2021/10/23 08:27:52;;;;;;;35.47;20.63;;;;;;;;;;5018611;28;20043;-71
2021/10/23 08:30:19;;;;;;;33.25;21.42;;;;;;;;;;5015152;28;20128;-72
2021/10/23 08:32:47;;;;;;;38.38;22.58;;;;;;;;;;5007587;28;20040;-71
2021/10/23 08:35:13;;;;;;;34.20;22.55;;;;;;;;;;5005399;28;20042;-72
2021/10/23 08:37:39;;;;;;;42.72;25.48;;;;;;;;;;5011141;28;20022;-72
2021/10/23 08:40:06;;;;;;;42.13;25.90;;;;;;;;;;5011683;28;20025;-71
2021/10/23 08:42:32;;;;;;;40.90;24.02;;;;;;;;;;5011250;28;20038;-72
2021/10/23 08:45:04;;;;;;;37.63;25.35;;;;;;;;;;5007412;28;20053;-71
2021/10/23 08:47:30;;;;;;;44.72;26.65;;;;;;;;;;5012149;28;20060;-71
2021/10/23 08:49:58;;;;;;;49.00;27.83;;;;;;;;;;5008195;28;20129;-72
2021/10/23 08:52:25;;;;;;;43.72;28.08;;;;;;;;;;5012092;28;20033;-72
2021/10/23 08:54:52;;;;;;;50.58;29.38;;;;;;;;;;5011754;28;20088;-72
2021/10/23 08:57:18;;;;;;;51.45;28.23;;;;;;;;;;5029615;28;20021;-72
2021/10/23 08:59:44;;;;;;;46.03;27.52;;;;;;;;;;5017160;28;20034;-72
2021/10/23 09:02:11;;;;;;;57.42;29.60;;;;;;;;;;5010979;28;20030;-71
2021/10/23 09:04:37;;;;;;;45.17;28.67;;;;;;;;;;5026221;28;20068;-72
2021/10/23 09:07:13;;;;;;;54.67;29.80;;;;;;;;;;5010816;28;20427;-71
2021/10/23 09:09:49;;;;;;;49.65;29.00;;;;;;;;;;5015521;28;20025;-71
2021/10/23 09:12:27;;;;;;;52.38;28.85;;;;;;;;;;5023838;28;20139;-71
2021/10/23 09:14:58;;;;;;;53.30;29.20;;;;;;;;;;5008241;28;20034;-71
2021/10/23 09:17:24;;;;;;;43.50;28.05;;;;;;;;;;5005352;28;20021;-71
2021/10/23 09:19:50;;;;;;;56.95;28.80;;;;;;;;;;5024342;28;20029;-71
2021/10/23 09:22:25;;;;;;;46.15;30.80;;;;;;;;;;5010528;28;20101;-71
2021/10/23 09:24:52;;;;;;;51.22;29.63;;;;;;;;;;5031783;28;20030;-71
2021/10/23 09:27:19;;;;;;;50.65;30.23;;;;;;;;;;5006974;28;20026;-71
2021/10/23 09:29:52;;;;;;;50.90;29.17;;;;;;;;;;5006171;28;20053;-71
2021/10/23 09:32:18;;;;;;;49.15;29.75;;;;;;;;;;5011972;28;20025;-71
2021/10/23 09:34:44;;;;;;;48.28;30.60;;;;;;;;;;5007936;28;20498;-71
2021/10/23 09:37:11;;;;;;;48.00;27.50;;;;;;;;;;5006037;28;20026;-71
2021/10/23 09:39:37;;;;;;;44.78;27.65;;;;;;;;;;5007430;28;20021;-71
2021/10/23 09:42:14;;;;;;;49.20;29.27;;;;;;;;;;5013319;28;20014;-71
2021/10/23 09:44:54;;;;;;;49.50;29.20;;;;;;;;;;5002386;28;20331;-71
2021/10/23 09:47:20;;;;;;;51.90;29.55;;;;;;;;;;5009638;28;20131;-71
2021/10/23 09:50:03;;;;;;;49.97;29.10;;;;;;;;;;5013409;28;20592;-71
2021/10/23 09:52:29;;;;;;;46.80;27.65;;;;;;;;;;5010559;28;20040;-72
2021/10/23 09:55:05;;;;;;;56.30;31.38;;;;;;;;;;5014240;28;20026;-72
2021/10/23 09:57:31;;;;;;;48.33;27.95;;;;;;;;;;5010333;28;20034;-71
2021/10/23 10:00:05;;;;;;;45.35;29.08;;;;;;;;;;5008953;28;20030;-71
2021/10/23 10:02:32;;;;;;;51.90;29.42;;;;;;;;;;5010430;28;20026;-71
2021/10/23 10:04:58;;;;;;;49.75;29.60;;;;;;;;;;5008357;28;20496;-72
2021/10/23 10:07:25;;;;;;;43.28;27.25;;;;;;;;;;4995964;28;20038;-71
2021/10/23 10:09:51;;;;;;;43.88;27.20;;;;;;;;;;5008379;28;20484;-70
2021/10/23 10:12:17;;;;;;;42.80;28.75;;;;;;;;;;5016108;28;20042;-72
2021/10/23 10:14:44;;;;;;;44.83;26.15;;;;;;;;;;5011460;28;20171;-71
2021/10/23 10:17:10;;;;;;;50.08;28.98;;;;;;;;;;5025117;28;20022;-71
2021/10/23 10:19:36;;;;;;;49.88;27.77;;;;;;;;;;5011097;28;20046;-70
2021/10/23 10:22:08;;;;;;;46.22;26.58;;;;;;;;;;5025046;28;20284;-71
2021/10/23 10:24:35;;;;;;;42.40;25.92;;;;;;;;;;5023203;28;20034;-71
2021/10/23 10:27:10;;;;;;;42.97;26.90;;;;;;;;;;5007878;28;20034;-71
2021/10/23 10:32:38;;;;;;;46.88;23.98;;;;;;;;;;5006188;28;20030;-71
2021/10/23 10:42:40;;;;;;;36.10;23.23;;;;;;;;;;4980378;28;20061;-71
2021/10/23 10:43:31;;;;;;;41.17;23.40;;;;;;;;;;5017691;28;20036;-71
2021/10/23 10:46:01;;;;;;;40.25;22.08;;;;;;;;;;5008664;28;20026;-71
2021/10/23 10:48:34;;;;;;;39.80;22.10;;;;;;;;;;5016368;28;20041;-71
2021/10/23 10:51:11;;;;;;;39.33;22.15;;;;;;;;;;5008485;28;20029;-72
2021/10/23 10:53:49;;;;;;;36.42;20.48;;;;;;;;;;5021820;28;20030;-72
2021/10/23 10:56:16;;;;;;;31.55;19.48;;;;;;;;;;4998623;28;20334;-71
2021/10/23 10:58:42;;;;;;;30.02;17.52;;;;;;;;;;5004861;28;20030;-71
2021/10/23 11:01:09;;;;;;;36.28;19.05;;;;;;;;;;5005366;28;20106;-72
2021/10/23 11:03:36;;;;;;;29.60;16.45;;;;;;;;;;5004423;28;20109;-71
2021/10/23 11:06:21;;;;;;;31.23;16.40;;;;;;;;;;5001385;28;20030;-72
2021/10/23 11:08:47;;;;;;;27.98;14.50;;;;;;;;;;5001685;28;20146;-72
2021/10/23 11:11:13;;;;;;;27.38;14.30;;;;;;;;;;5002058;28;20077;-72
2021/10/23 11:13:43;;;;;;;25.25;14.10;;;;;;;;;;5009956;28;20463;-72
2021/10/23 11:16:28;;;;;;;22.25;14.23;;;;;;;;;;5002923;28;20032;-72
2021/10/23 11:18:54;;;;;;;35.67;17.83;;;;;;;;;;4994790;28;20026;-72
2021/10/23 11:21:21;;;;;;;26.33;14.65;;;;;;;;;;5009687;28;20030;-72
2021/10/23 11:23:56;;;;;;;29.70;13.63;;;;;;;;;;4999035;28;20065;-72
2021/10/23 11:26:22;;;;;;;32.17;14.95;;;;;;;;;;5007697;28;20034;-72
2021/10/23 11:28:48;;;;;;;26.45;15.23;;;;;;;;;;5025720;28;20030;-72
2021/10/23 11:31:19;;;;;;;23.88;15.23;;;;;;;;;;5028258;28;20018;-72
2021/10/23 11:33:45;;;;;;;24.85;14.65;;;;;;;;;;5010553;28;20116;-72
2021/10/23 11:36:14;;;;;;;30.63;14.35;;;;;;;;;;5008549;28;20042;-72
2021/10/23 11:38:41;;;;;;;26.17;14.18;;;;;;;;;;4998232;28;20026;-72
2021/10/23 11:41:07;;;;;;;29.92;14.13;;;;;;;;;;5010262;28;20392;-72
2021/10/23 11:43:35;;;;;;;25.73;14.65;;;;;;;;;;5013420;28;20048;-72
2021/10/23 11:46:05;;;;;;;24.92;14.43;;;;;;;;;;5004895;28;20084;-72
2021/10/23 11:48:31;;;;;;;28.08;13.60;;;;;;;;;;5000581;28;20041;-72
2021/10/23 11:50:57;;;;;;;23.38;14.15;;;;;;;;;;5003842;28;20084;-72
2021/10/23 11:53:28;;;;;;;28.58;15.45;;;;;;;;;;5004074;28;20029;-72
2021/10/23 11:56:02;;;;;;;25.53;15.33;;;;;;;;;;5004590;28;20090;-71
2021/10/23 11:58:31;;;;;;;28.63;17.35;;;;;;;;;;5002221;28;20788;-72
2021/10/23 12:01:01;;;;;;;28.88;16.75;;;;;;;;;;5002196;28;20029;-72
2021/10/23 12:03:39;;;;;;;26.67;16.20;;;;;;;;;;5011323;28;20022;-72
2021/10/23 12:06:18;;;;;;;29.25;15.93;;;;;;;;;;5012163;28;20026;-72
2021/10/23 12:08:44;;;;;;;30.60;15.70;;;;;;;;;;5000310;28;20033;-71
2021/10/23 12:11:13;;;;;;;29.70;15.77;;;;;;;;;;5028584;28;20046;-72
2021/10/23 12:13:50;;;;;;;25.60;16.00;;;;;;;;;;5012386;28;20400;-72
2021/10/23 12:16:17;;;;;;;23.00;15.40;;;;;;;;;;5004646;28;20018;-72
2021/10/23 12:18:44;;;;;;;22.52;14.93;;;;;;;;;;5001120;28;20389;-72
2021/10/23 12:21:11;;;;;;;26.23;15.30;;;;;;;;;;5004239;28;20053;-73
2021/10/23 12:23:50;;;;;;;31.23;15.70;;;;;;;;;;5008819;28;20555;-72
2021/10/23 12:26:16;;;;;;;26.10;15.15;;;;;;;;;;5010758;28;20075;-72
2021/10/23 12:28:56;;;;;;;29.42;16.05;;;;;;;;;;5007749;28;20045;-72
2021/10/23 12:31:22;;;;;;;25.38;14.88;;;;;;;;;;5012529;28;20116;-72
2021/10/23 12:34:01;;;;;;;26.67;14.45;;;;;;;;;;5003556;28;20031;-73
2021/10/23 12:36:27;;;;;;;21.13;11.98;;;;;;;;;;5009694;28;20026;-72
2021/10/23 12:38:53;;;;;;;25.95;12.57;;;;;;;;;;5007891;28;20569;-72
2021/10/23 12:41:19;;;;;;;18.10;11.55;;;;;;;;;;5012693;28;20389;-72
2021/10/23 12:43:45;;;;;;;27.27;11.95;;;;;;;;;;5003773;28;20109;-72
2021/10/23 12:46:12;;;;;;;25.00;12.68;;;;;;;;;;5008610;28;20030;-72
2021/10/23 12:48:38;;;;;;;20.27;11.43;;;;;;;;;;5007090;28;20022;-72
2021/10/23 12:51:04;;;;;;;19.50;12.45;;;;;;;;;;5008615;28;20022;-72
2021/10/23 12:53:30;;;;;;;23.08;12.10;;;;;;;;;;5000937;28;20030;-72
2021/10/23 12:55:56;;;;;;;18.48;11.60;;;;;;;;;;5010382;28;20029;-72
2021/10/23 12:58:22;;;;;;;23.35;12.80;;;;;;;;;;5009411;28;20109;-72
2021/10/23 13:00:48;;;;;;;21.10;11.93;;;;;;;;;;5010353;28;20033;-72
2021/10/23 13:03:16;;;;;;;18.00;11.75;;;;;;;;;;5003062;28;20018;-72
2021/10/23 13:05:42;;;;;;;22.27;11.73;;;;;;;;;;5007722;28;20087;-72
2021/10/23 13:08:08;;;;;;;17.27;11.00;;;;;;;;;;5001177;28;20033;-72
2021/10/23 13:10:34;;;;;;;18.90;10.60;;;;;;;;;;5010583;28;20057;-71
2021/10/23 13:13:00;;;;;;;27.30;11.20;;;;;;;;;;5009402;28;20046;-72
2021/10/23 13:15:28;;;;;;;17.75;12.25;;;;;;;;;;5010329;28;20029;-72
2021/10/23 13:17:54;;;;;;;24.88;11.73;;;;;;;;;;5008033;28;20026;-72
2021/10/23 13:20:21;;;;;;;16.63;9.90;;;;;;;;;;5009368;28;20052;-71
2021/10/23 13:22:47;;;;;;;18.90;10.23;;;;;;;;;;5009421;28;20072;-72
2021/10/23 13:25:14;;;;;;;16.48;9.05;;;;;;;;;;5008913;28;20026;-71
2021/10/23 13:27:40;;;;;;;16.75;8.65;;;;;;;;;;5008512;28;20550;-72
2021/10/23 13:30:07;;;;;;;15.50;7.55;;;;;;;;;;5002620;28;20116;-71
2021/10/23 13:32:33;;;;;;;17.65;6.80;;;;;;;;;;5024673;28;20137;-72
2021/10/23 13:34:59;;;;;;;11.80;6.65;;;;;;;;;;5002292;28;20554;-72
2021/10/23 13:37:25;;;;;;;12.27;6.38;;;;;;;;;;5010214;28;20026;-71
2021/10/23 13:39:51;;;;;;;14.25;5.63;;;;;;;;;;4998813;28;20105;-71
2021/10/23 13:42:18;;;;;;;12.23;6.57;;;;;;;;;;5011067;28;20033;-72
2021/10/23 13:44:44;;;;;;;9.90;5.68;;;;;;;;;;5006928;28;20029;-71
2021/10/23 13:47:10;;;;;;;14.02;6.65;;;;;;;;;;5010066;28;20036;-71
2021/10/23 13:49:36;;;;;;;10.95;5.57;;;;;;;;;;5007604;28;20090;-71
2021/10/23 13:52:03;;;;;;;13.35;5.80;;;;;;;;;;5008161;28;20022;-71
2021/10/23 13:54:29;;;;;;;12.10;6.18;;;;;;;;;;5009962;28;20049;-71
2021/10/23 13:56:55;;;;;;;11.40;5.50;;;;;;;;;;5007989;28;20506;-71
2021/10/23 13:59:21;;;;;;;14.02;6.68;;;;;;;;;;5007491;28;20472;-71
2021/10/23 14:01:47;;;;;;;9.93;5.22;;;;;;;;;;5008501;28;20056;-70
2021/10/23 14:04:13;;;;;;;11.00;5.05;;;;;;;;;;5010387;28;20071;-70
2021/10/23 14:06:40;;;;;;;19.65;6.95;;;;;;;;;;5020877;28;20030;-70
2021/10/23 14:09:06;;;;;;;13.13;6.25;;;;;;;;;;4998473;28;20038;-71
2021/10/23 14:11:32;;;;;;;12.20;7.07;;;;;;;;;;5008224;28;20045;-71
2021/10/23 14:13:59;;;;;;;14.00;6.97;;;;;;;;;;5008017;28;20026;-71
2021/10/23 14:16:26;;;;;;;10.75;6.07;;;;;;;;;;5010100;28;20045;-71
2021/10/23 14:18:53;;;;;;;13.95;6.00;;;;;;;;;;5004077;28;20546;-71
2021/10/23 14:21:19;;;;;;;14.50;6.80;;;;;;;;;;5009819;28;20052;-70
2021/10/23 14:23:46;;;;;;;16.83;5.75;;;;;;;;;;5007067;28;20025;-70
2021/10/23 14:26:14;;;;;;;14.85;5.43;;;;;;;;;;5003645;28;20053;-71
2021/10/23 14:28:40;;;;;;;14.13;5.50;;;;;;;;;;5006781;28;20037;-70
2021/10/23 14:31:10;;;;;;;12.23;5.20;;;;;;;;;;5004350;28;20426;-70
2021/10/23 14:33:37;;;;;;;11.40;5.32;;;;;;;;;;5008882;28;20109;-70